Time;durP1;ratioP1;P1;durP2;ratioP2;P2;SDS_P1;SDS_P2;PMS_P1;PMS_P2;Temp;Humidity;BMP_temperature;BMP_pressure;BME280_temperature;BME280_humidity;BME280_pressure;Samples;Min_cycle;Max_cycle;Signal;HPM_P1;HPM_P2
2023/03/13 00:00:28;;;;;;;1.60;1.20;;;10.70;98.20;;;;;;5045926;28;20842;-74
2023/03/13 00:02:55;;;;;;;1.50;1.10;;;10.60;98.20;;;;;;5031642;28;20482;-74
2023/03/13 00:05:21;;;;;;;1.50;1.10;;;10.60;98.20;;;;;;5044647;28;20486;-74
2023/03/13 00:07:48;;;;;;;1.53;1.10;;;10.60;98.20;;;;;;5031185;28;20493;-74
2023/03/13 00:10:15;;;;;;;1.57;1.10;;;10.60;98.20;;;;;;5039829;28;20473;-74
2023/03/13 00:12:42;;;;;;;1.53;1.10;;;10.50;98.20;;;;;;5026013;28;20497;-74
2023/03/13 00:15:09;;;;;;;1.57;1.10;;;10.50;98.20;;;;;;5044910;28;21018;-72
2023/03/13 00:17:37;;;;;;;1.53;1.10;;;10.50;98.20;;;;;;5033449;28;21041;-71
2023/03/13 00:20:06;;;;;;;1.60;1.20;;;10.50;98.20;;;;;;5042694;28;20467;-71
2023/03/13 00:22:32;;;;;;;1.60;1.27;;;10.50;98.20;;;;;;5020444;28;20492;-71
2023/03/13 00:24:59;;;;;;;1.60;1.20;;;10.50;98.20;;;;;;5043360;28;20501;-72
2023/03/13 00:27:26;;;;;;;1.60;1.30;;;10.50;98.20;;;;;;5034270;28;20486;-74
2023/03/13 00:29:53;;;;;;;1.53;1.10;;;10.50;98.20;;;;;;5044154;28;20484;-72
2023/03/13 00:32:19;;;;;;;1.53;1.10;;;10.50;98.20;;;;;;5035403;28;20968;-71
2023/03/13 00:34:47;;;;;;;1.57;1.10;;;10.50;98.20;;;;;;5042582;28;20466;-72
2023/03/13 00:37:14;;;;;;;1.53;1.20;;;10.50;98.20;;;;;;5035900;28;20483;-72
2023/03/13 00:39:41;;;;;;;1.60;1.20;;;10.50;98.20;;;;;;5043919;28;20466;-72
2023/03/13 00:42:08;;;;;;;1.60;1.20;;;10.50;98.20;;;;;;5036552;28;20533;-72
2023/03/13 00:44:34;;;;;;;1.60;1.20;;;10.50;98.20;;;;;;5039881;28;20474;-72
2023/03/13 00:47:01;;;;;;;1.57;1.10;;;10.50;98.20;;;;;;5023716;28;20949;-72
2023/03/13 00:49:28;;;;;;;1.60;1.20;;;10.50;98.20;;;;;;5039667;28;20473;-72
2023/03/13 00:51:56;;;;;;;1.50;1.10;;;10.50;98.20;;;;;;5036679;28;20494;-73
2023/03/13 00:54:23;;;;;;;1.60;1.30;;;10.50;98.20;;;;;;5045408;28;20474;-73
2023/03/13 00:56:50;;;;;;;1.60;1.17;;;10.60;98.20;;;;;;5032039;28;20498;-73
2023/03/13 00:59:16;;;;;;;1.57;1.10;;;10.50;98.20;;;;;;5031984;28;20464;-73
2023/03/13 01:01:43;;;;;;;1.60;1.20;;;10.60;98.20;;;;;;5035135;28;21049;-73
2023/03/13 01:04:11;;;;;;;1.50;1.13;;;10.60;98.20;;;;;;5037321;28;20474;-73
2023/03/13 01:06:41;;;;;;;1.53;1.10;;;10.60;98.20;;;;;;5038915;28;20485;-72
2023/03/13 01:09:11;;;;;;;1.60;1.20;;;10.60;98.20;;;;;;5041872;28;20566;-72
2023/03/13 01:11:41;;;;;;;1.53;1.20;;;10.60;98.20;;;;;;5037886;28;20497;-72
2023/03/13 01:14:10;;;;;;;1.60;1.20;;;10.60;98.20;;;;;;5038837;28;20471;-72
2023/03/13 01:16:38;;;;;;;1.60;1.20;;;10.60;98.20;;;;;;5038689;28;20509;-72
2023/03/13 01:19:06;;;;;;;1.60;1.13;;;10.60;98.20;;;;;;5045317;28;20956;-72
2023/03/13 01:21:33;;;;;;;1.60;1.20;;;10.60;98.20;;;;;;5034181;28;21070;-73
2023/03/13 01:24:00;;;;;;;1.60;1.30;;;10.70;98.20;;;;;;5040217;28;20470;-72
2023/03/13 01:26:30;;;;;;;1.57;1.10;;;10.70;98.20;;;;;;5037953;28;20481;-73
2023/03/13 01:28:57;;;;;;;1.57;1.10;;;10.70;98.20;;;;;;5040016;28;20474;-73
2023/03/13 01:31:26;;;;;;;1.57;1.10;;;10.70;98.20;;;;;;5037027;28;20489;-73
2023/03/13 01:33:55;;;;;;;1.57;1.10;;;10.70;98.20;;;;;;5041023;28;20481;-73
2023/03/13 01:36:23;;;;;;;1.50;1.10;;;10.70;98.20;;;;;;5036227;28;20477;-73
2023/03/13 01:38:51;;;;;;;1.60;1.10;;;10.70;98.20;;;;;;5034988;28;20474;-74
2023/03/13 01:41:19;;;;;;;1.60;1.20;;;10.70;98.20;;;;;;5033282;28;20488;-72
2023/03/13 01:43:47;;;;;;;1.60;1.20;;;10.70;98.20;;;;;;5036433;28;20467;-74
2023/03/13 01:46:16;;;;;;;1.60;1.10;;;10.70;98.20;;;;;;5035415;28;20927;-74
2023/03/13 01:48:49;;;;;;;1.60;1.10;;;10.70;98.20;;;;;;5045981;28;20469;-73
2023/03/13 01:51:20;;;;;;;1.53;1.10;;;10.70;98.20;;;;;;5027111;28;20477;-73
2023/03/13 01:53:50;;;;;;;1.53;1.10;;;10.80;98.20;;;;;;5042814;28;20943;-73
2023/03/13 01:56:20;;;;;;;1.57;1.10;;;10.90;98.20;;;;;;5033615;28;20473;-73
2023/03/13 01:58:50;;;;;;;1.57;1.10;;;10.90;98.20;;;;;;5041096;28;20747;-74
2023/03/13 02:01:18;;;;;;;1.50;1.10;;;11.00;98.20;;;;;;5031601;28;20674;-73
2023/03/13 02:03:46;;;;;;;1.53;1.10;;;11.00;98.20;;;;;;5043815;28;20470;-74
2023/03/13 02:06:12;;;;;;;1.57;1.00;;;11.10;98.20;;;;;;5028421;28;20486;-73
2023/03/13 02:08:48;;;;;;;1.53;1.10;;;11.10;98.20;;;;;;5045516;28;20484;-73
2023/03/13 02:11:24;;;;;;;1.50;1.10;;;11.10;98.20;;;;;;5018319;28;20489;-73
2023/03/13 02:13:54;;;;;;;1.60;1.10;;;11.20;98.20;;;;;;5043744;28;20465;-74
2023/03/13 02:16:21;;;;;;;1.57;1.10;;;11.10;98.20;;;;;;5030705;28;20488;-74
2023/03/13 02:18:48;;;;;;;1.60;1.10;;;11.10;98.20;;;;;;5042795;28;20943;-75
2023/03/13 02:21:25;;;;;;;1.53;1.00;;;11.20;98.20;;;;;;5031430;28;20493;-74
2023/03/13 02:23:58;;;;;;;1.60;1.20;;;11.10;98.20;;;;;;5043524;28;20463;-75
2023/03/13 02:26:26;;;;;;;1.53;1.03;;;11.10;98.20;;;;;;5032769;28;20546;-75
2023/03/13 02:28:53;;;;;;;1.60;1.10;;;11.10;98.20;;;;;;5035797;28;20484;-75
2023/03/13 02:31:20;;;;;;;1.53;1.10;;;11.10;98.20;;;;;;5035039;28;20527;-74
2023/03/13 02:33:47;;;;;;;1.50;1.10;;;11.10;98.20;;;;;;5042460;28;20474;-75
2023/03/13 02:36:16;;;;;;;1.60;1.10;;;11.10;98.20;;;;;;5035034;28;20491;-75
2023/03/13 02:38:51;;;;;;;1.53;1.10;;;11.10;98.20;;;;;;5038836;28;20485;-75
2023/03/13 02:41:19;;;;;;;1.60;1.10;;;11.10;98.20;;;;;;5027706;28;20504;-74
2023/03/13 02:43:47;;;;;;;1.60;1.10;;;11.10;98.20;;;;;;5041350;28;20463;-74
2023/03/13 02:46:16;;;;;;;1.60;1.20;;;11.10;98.20;;;;;;5034429;28;20485;-74
2023/03/13 02:48:44;;;;;;;1.60;1.20;;;11.00;98.20;;;;;;5045184;28;20466;-75
2023/03/13 02:51:18;;;;;;;1.57;1.10;;;11.00;98.20;;;;;;5028299;28;20469;-74
2023/03/13 02:53:46;;;;;;;1.60;1.10;;;11.00;98.20;;;;;;5045012;28;20462;-74
2023/03/13 02:56:14;;;;;;;1.60;1.20;;;11.00;98.20;;;;;;5035023;28;20557;-74
2023/03/13 02:58:42;;;;;;;1.60;1.10;;;11.00;98.20;;;;;;5043230;28;21057;-74
2023/03/13 03:01:10;;;;;;;1.60;1.10;;;11.00;98.20;;;;;;5036440;28;20585;-74
2023/03/13 03:03:37;;;;;;;1.50;1.00;;;11.00;98.20;;;;;;5053279;28;20851;-74
2023/03/13 03:06:05;;;;;;;1.53;1.00;;;11.00;98.20;;;;;;5040220;28;20933;-73
2023/03/13 03:08:33;;;;;;;1.53;1.10;;;11.00;98.20;;;;;;5045416;28;20466;-73
2023/03/13 03:11:00;;;;;;;1.53;1.10;;;11.00;98.20;;;;;;5039380;28;20485;-73
2023/03/13 03:13:26;;;;;;;1.53;1.10;;;11.00;98.20;;;;;;5054481;28;20466;-73
2023/03/13 03:15:53;;;;;;;1.60;1.20;;;11.00;98.20;;;;;;5039449;28;20488;-73
2023/03/13 03:18:21;;;;;;;1.53;1.10;;;11.00;98.20;;;;;;5048204;28;20466;-73
2023/03/13 03:20:48;;;;;;;1.60;1.20;;;11.00;98.20;;;;;;5047023;28;20473;-73
2023/03/13 03:23:14;;;;;;;1.60;1.10;;;10.90;98.20;;;;;;5054091;28;20478;-74
2023/03/13 03:25:41;;;;;;;1.60;1.10;;;10.90;98.20;;;;;;5049061;28;20466;-74
2023/03/13 03:28:08;;;;;;;1.60;1.10;;;10.90;98.20;;;;;;5042854;28;20589;-73
2023/03/13 03:30:35;;;;;;;1.60;1.10;;;10.90;98.20;;;;;;5050459;28;20458;-74
2023/03/13 03:33:03;;;;;;;1.60;1.10;;;10.90;98.20;;;;;;5043559;28;21089;-74
2023/03/13 03:35:32;;;;;;;1.53;1.10;;;10.90;98.20;;;;;;5050092;28;20512;-74
2023/03/13 03:37:59;;;;;;;1.60;1.10;;;10.90;98.20;;;;;;5042433;28;20478;-74
2023/03/13 03:40:27;;;;;;;1.60;1.30;;;10.90;98.20;;;;;;5050421;28;20990;-74
2023/03/13 03:42:53;;;;;;;1.57;1.10;;;10.90;98.20;;;;;;5036400;28;20843;-74
2023/03/13 03:45:20;;;;;;;1.53;1.10;;;10.90;98.20;;;;;;5044105;28;20454;-74
2023/03/13 03:50:15;;;;;;;1.53;1.10;;;10.90;98.20;;;;;;5083344;28;20464;-77
2023/03/13 03:52:46;;;;;;;1.50;1.10;;;10.90;98.20;;;;;;5077064;28;20525;-76
2023/03/13 03:55:13;;;;;;;1.57;1.10;;;10.90;98.20;;;;;;5092250;28;20487;-74
2023/03/13 03:57:39;;;;;;;1.60;1.10;;;10.90;98.20;;;;;;5085432;28;20488;-76
2023/03/13 04:00:08;;;;;;;1.60;1.20;;;10.90;98.20;;;;;;5092252;28;20457;-76
2023/03/13 04:02:36;;;;;;;1.60;1.20;;;10.90;98.20;;;;;;5067028;28;20934;-75
2023/03/13 04:05:04;;;;;;;1.53;1.10;;;10.90;98.20;;;;;;5090160;28;20690;-76
2023/03/13 04:07:30;;;;;;;1.57;1.10;;;10.90;98.20;;;;;;5061764;28;20484;-76
2023/03/13 04:09:59;;;;;;;1.60;1.27;;;11.00;98.20;;;;;;5085222;28;21059;-74
2023/03/13 04:12:26;;;;;;;1.60;1.10;;;11.00;98.20;;;;;;5061228;28;20473;-74
2023/03/13 04:14:52;;;;;;;1.53;1.10;;;11.00;98.20;;;;;;5084660;28;20452;-76
2023/03/13 04:17:20;;;;;;;1.53;1.10;;;11.00;98.20;;;;;;5066262;28;20484;-75
2023/03/13 04:19:46;;;;;;;1.60;1.10;;;11.00;98.20;;;;;;5080841;28;20490;-74
2023/03/13 04:22:13;;;;;;;1.57;1.10;;;11.10;98.20;;;;;;5062987;28;20536;-73
2023/03/13 04:24:40;;;;;;;1.60;1.10;;;11.10;98.20;;;;;;5084125;28;20460;-75
2023/03/13 04:27:08;;;;;;;1.57;1.10;;;11.10;98.20;;;;;;5067962;28;20509;-73
2023/03/13 04:29:35;;;;;;;1.60;1.20;;;11.10;98.20;;;;;;5078245;28;20496;-73
2023/03/13 04:32:02;;;;;;;1.50;1.10;;;11.20;98.20;;;;;;5062945;28;20482;-73
2023/03/13 04:34:29;;;;;;;1.60;1.20;;;11.20;98.20;;;;;;5079362;28;20452;-76
2023/03/13 04:37:05;;;;;;;1.57;1.10;;;11.20;98.20;;;;;;5062467;28;20485;-74
2023/03/13 04:39:32;;;;;;;1.60;1.10;;;11.20;98.20;;;;;;5081039;28;20811;-75
2023/03/13 04:41:59;;;;;;;1.57;1.10;;;11.20;98.20;;;;;;5063323;28;20485;-74
2023/03/13 04:44:27;;;;;;;1.57;1.10;;;11.20;98.20;;;;;;5085145;28;20460;-79
2023/03/13 04:46:54;;;;;;;1.53;1.07;;;11.20;98.20;;;;;;5084324;22;22037;-75
2023/03/13 04:49:21;;;;;;;1.60;1.10;;;11.30;98.20;;;;;;5075222;28;20454;-75
2023/03/13 04:51:48;;;;;;;1.60;1.10;;;11.30;98.20;;;;;;5051836;28;20564;-75
2023/03/13 04:54:15;;;;;;;1.57;1.10;;;11.30;98.20;;;;;;5069642;28;20485;-75
2023/03/13 04:56:42;;;;;;;1.53;1.10;;;11.40;98.20;;;;;;5062569;28;20529;-75
2023/03/13 04:59:09;;;;;;;1.57;1.10;;;11.40;98.20;;;;;;5047793;28;20859;-75
2023/03/13 05:01:37;;;;;;;1.60;1.10;;;11.40;98.20;;;;;;5044174;28;20486;-75
2023/03/13 05:04:04;;;;;;;1.60;1.10;;;11.40;98.20;;;;;;5050959;28;20467;-74
2023/03/13 05:06:31;;;;;;;1.57;1.10;;;11.40;98.20;;;;;;5048276;28;20482;-75
2023/03/13 05:08:57;;;;;;;1.50;1.10;;;11.50;98.20;;;;;;5041606;28;20910;-75
2023/03/13 05:11:24;;;;;;;1.53;1.10;;;11.50;98.20;;;;;;5035660;28;20824;-76
2023/03/13 05:13:51;;;;;;;1.60;1.13;;;11.60;98.20;;;;;;5044848;28;21260;-75
2023/03/13 05:16:18;;;;;;;1.57;1.10;;;11.70;98.20;;;;;;5036314;28;20482;-75
2023/03/13 05:18:46;;;;;;;1.60;1.20;;;11.80;98.20;;;;;;5044808;28;20986;-79
2023/03/13 05:21:13;;;;;;;1.60;1.20;;;11.90;98.20;;;;;;5045391;28;20478;-75
2023/03/13 05:23:39;;;;;;;1.57;1.10;;;12.10;98.20;;;;;;5045352;28;20467;-75
2023/03/13 05:26:06;;;;;;;1.53;1.10;;;12.20;98.20;;;;;;5030855;28;20473;-76
2023/03/13 05:28:33;;;;;;;1.57;1.10;;;12.20;98.20;;;;;;5048384;28;20569;-75
2023/03/13 05:30:59;;;;;;;1.60;1.20;;;12.30;98.20;;;;;;5037631;28;20467;-76
2023/03/13 05:33:26;;;;;;;1.60;1.10;;;12.50;98.20;;;;;;5039066;28;20461;-75
2023/03/13 05:35:54;;;;;;;1.60;1.10;;;12.60;98.20;;;;;;5043420;28;20467;-75
2023/03/13 05:38:21;;;;;;;1.60;1.10;;;12.60;98.20;;;;;;5045017;28;20485;-75
2023/03/13 05:40:48;;;;;;;1.60;1.20;;;12.70;98.20;;;;;;5048814;28;21124;-76
2023/03/13 05:43:14;;;;;;;1.60;1.10;;;12.70;98.20;;;;;;5047148;28;20477;-74
2023/03/13 05:45:41;;;;;;;1.53;1.10;;;12.80;98.20;;;;;;5053090;28;21205;-74
2023/03/13 05:48:08;;;;;;;1.57;1.10;;;12.80;98.20;;;;;;5037664;28;20478;-74
2023/03/13 05:50:35;;;;;;;1.60;1.10;;;12.80;98.20;;;;;;5050654;28;20458;-74
2023/03/13 05:53:03;;;;;;;1.60;1.10;;;12.80;98.20;;;;;;5014819;28;20662;-74
2023/03/13 05:55:30;;;;;;;1.60;1.10;;;12.90;98.20;;;;;;5044410;28;20827;-75
2023/03/13 05:57:56;;;;;;;1.60;1.20;;;12.90;98.20;;;;;;5030748;28;20493;-76
2023/03/13 06:00:23;;;;;;;1.57;1.00;;;12.90;98.20;;;;;;5044832;28;20793;-75
2023/03/13 06:02:50;;;;;;;1.53;1.00;;;13.00;98.20;;;;;;5033626;28;20482;-74
2023/03/13 06:05:17;;;;;;;1.60;1.10;;;13.00;98.20;;;;;;5045587;28;20462;-77
2023/03/13 06:07:44;;;;;;;1.57;1.00;;;13.00;98.20;;;;;;5038569;28;20486;-79
2023/03/13 06:10:12;;;;;;;1.60;1.10;;;13.00;98.20;;;;;;5044631;28;21259;-75
2023/03/13 06:12:39;;;;;;;1.60;1.10;;;13.00;98.20;;;;;;5019053;28;20577;-75
2023/03/13 06:15:08;;;;;;;1.60;1.10;;;13.00;98.20;;;;;;5050006;28;20466;-75
2023/03/13 06:17:35;;;;;;;1.60;1.20;;;13.00;98.20;;;;;;5017484;28;20509;-75
2023/03/13 06:20:04;;;;;;;1.60;1.10;;;13.10;98.20;;;;;;5048152;28;20469;-75
2023/03/13 06:22:30;;;;;;;1.60;1.10;;;13.10;98.20;;;;;;5039745;28;20545;-75
2023/03/13 06:24:57;;;;;;;1.60;1.10;;;13.10;98.20;;;;;;5047941;28;20461;-75
2023/03/13 06:27:25;;;;;;;1.50;0.90;;;13.10;98.20;;;;;;5039955;28;20652;-75
2023/03/13 06:29:52;;;;;;;1.60;1.03;;;13.20;98.20;;;;;;5043872;28;20501;-75
2023/03/13 06:32:19;;;;;;;1.60;1.10;;;13.30;98.20;;;;;;5040508;28;20484;-75
2023/03/13 06:34:45;;;;;;;1.57;1.00;;;13.30;98.20;;;;;;5044734;28;20492;-77
2023/03/13 06:37:12;;;;;;;1.53;1.00;;;13.30;98.20;;;;;;5030553;28;20490;-74
2023/03/13 06:39:39;;;;;;;1.57;1.00;;;13.30;98.20;;;;;;5043760;28;20473;-75
2023/03/13 06:42:07;;;;;;;1.60;1.10;;;13.30;98.20;;;;;;5036603;28;20506;-75
2023/03/13 06:44:35;;;;;;;1.60;1.10;;;13.40;98.20;;;;;;5038344;28;20473;-74
2023/03/13 06:47:01;;;;;;;1.50;1.00;;;13.40;98.20;;;;;;5030746;28;20785;-75
2023/03/13 06:49:28;;;;;;;1.60;1.10;;;13.40;98.20;;;;;;5036376;28;20508;-75
2023/03/13 06:51:57;;;;;;;1.60;1.00;;;13.40;98.20;;;;;;5038601;28;20489;-76
2023/03/13 06:54:24;;;;;;;1.60;1.10;;;13.50;98.20;;;;;;5038178;28;20469;-76
2023/03/13 06:56:51;;;;;;;1.60;1.10;;;13.50;98.20;;;;;;5034908;28;20489;-75
2023/03/13 06:59:18;;;;;;;1.57;1.00;;;13.60;98.20;;;;;;5036667;28;20468;-75
2023/03/13 07:01:46;;;;;;;1.57;1.00;;;13.60;98.20;;;;;;5032726;28;20478;-77
2023/03/13 07:04:13;;;;;;;1.57;1.00;;;13.70;98.20;;;;;;5035788;28;21133;-74
2023/03/13 07:06:40;;;;;;;1.50;1.00;;;13.70;98.20;;;;;;5024762;28;20496;-75
2023/03/13 07:09:07;;;;;;;1.60;1.00;;;13.70;98.20;;;;;;5034886;28;20567;-75
2023/03/13 07:11:34;;;;;;;1.60;1.00;;;13.70;98.20;;;;;;5032663;28;20504;-75
2023/03/13 07:14:01;;;;;;;1.57;1.00;;;13.70;98.20;;;;;;5043184;28;20469;-75
2023/03/13 07:16:28;;;;;;;1.53;1.00;;;13.70;98.20;;;;;;5036663;28;20497;-74
2023/03/13 07:18:56;;;;;;;1.53;1.00;;;13.80;98.20;;;;;;5037534;28;20458;-76
2023/03/13 07:21:23;;;;;;;1.57;1.07;;;13.80;98.20;;;;;;5035850;28;20484;-77
2023/03/13 07:23:50;;;;;;;1.60;1.10;;;13.80;98.20;;;;;;5039283;28;20467;-75
2023/03/13 07:26:17;;;;;;;1.60;1.10;;;13.80;98.20;;;;;;5034262;28;20486;-75
2023/03/13 07:28:44;;;;;;;1.60;1.30;;;13.80;98.20;;;;;;5032396;28;20493;-77
2023/03/13 07:31:13;;;;;;;1.60;1.00;;;13.80;98.20;;;;;;5033840;28;21003;-75
2023/03/13 07:33:41;;;;;;;1.57;1.00;;;13.80;98.20;;;;;;5040737;28;20459;-75
2023/03/13 07:36:10;;;;;;;1.60;1.00;;;13.80;98.20;;;;;;5030462;28;20479;-75
2023/03/13 07:38:36;;;;;;;1.57;1.00;;;13.90;98.20;;;;;;5036746;28;20482;-75
2023/03/13 07:41:04;;;;;;;1.60;1.00;;;13.90;98.20;;;;;;5032984;28;20472;-75
2023/03/13 07:43:31;;;;;;;1.60;1.10;;;14.00;98.20;;;;;;5038625;28;20470;-74
2023/03/13 07:45:59;;;;;;;1.57;1.00;;;14.00;98.20;;;;;;5031240;28;21093;-75
2023/03/13 07:48:29;;;;;;;1.60;1.10;;;14.00;98.20;;;;;;5041325;28;20541;-75
2023/03/13 07:50:57;;;;;;;1.60;1.00;;;14.10;98.20;;;;;;5035256;28;20471;-77
2023/03/13 07:53:26;;;;;;;1.60;1.00;;;14.10;98.20;;;;;;5045376;28;20473;-75
2023/03/13 07:55:57;;;;;;;1.57;1.00;;;14.20;98.20;;;;;;5035640;28;20909;-75
2023/03/13 07:58:25;;;;;;;1.60;1.10;;;14.20;98.20;;;;;;5035677;28;20850;-75
2023/03/13 08:00:52;;;;;;;1.60;1.10;;;14.20;98.20;;;;;;5034556;28;20466;-76
2023/03/13 08:03:20;;;;;;;1.53;1.00;;;14.20;98.20;;;;;;5036077;28;20972;-75
2023/03/13 08:05:46;;;;;;;1.60;1.00;;;14.20;98.20;;;;;;5036195;28;20461;-75
2023/03/13 08:08:13;;;;;;;1.60;1.10;;;14.20;98.20;;;;;;5017149;28;20486;-75
2023/03/13 08:10:41;;;;;;;1.60;1.10;;;14.20;98.20;;;;;;5046477;28;20473;-75
2023/03/13 08:13:08;;;;;;;1.53;1.10;;;14.20;98.20;;;;;;5033661;28;20529;-77
2023/03/13 08:15:35;;;;;;;1.60;1.10;;;14.20;98.20;;;;;;5042534;28;20466;-76
2023/03/13 08:18:01;;;;;;;1.53;1.00;;;14.20;98.20;;;;;;5026699;28;20489;-75
2023/03/13 08:20:28;;;;;;;1.60;1.03;;;14.20;98.20;;;;;;5035641;28;20900;-76
2023/03/13 08:22:56;;;;;;;1.57;1.00;;;14.20;98.20;;;;;;5035445;28;20482;-75
2023/03/13 08:25:23;;;;;;;1.53;1.00;;;14.20;98.20;;;;;;5045926;28;20480;-76
2023/03/13 08:27:51;;;;;;;1.53;1.00;;;14.20;98.20;;;;;;5034507;28;20490;-75
2023/03/13 08:30:18;;;;;;;1.60;1.00;;;14.20;98.20;;;;;;5038215;28;20468;-75
2023/03/13 08:32:45;;;;;;;1.60;1.00;;;14.20;98.20;;;;;;5030362;28;20518;-75
2023/03/13 08:35:12;;;;;;;1.60;1.00;;;14.30;98.20;;;;;;5045552;28;20574;-76
2023/03/13 08:37:39;;;;;;;1.57;1.00;;;14.30;98.20;;;;;;5021621;28;20494;-75
2023/03/13 08:40:10;;;;;;;1.53;1.00;;;14.30;98.20;;;;;;5045348;28;20470;-75
2023/03/13 08:42:39;;;;;;;1.60;1.00;;;14.40;98.20;;;;;;5035548;28;20616;-75
2023/03/13 08:45:08;;;;;;;1.57;1.00;;;14.40;98.20;;;;;;5038533;28;20561;-76
2023/03/13 08:47:35;;;;;;;1.53;1.00;;;14.40;98.20;;;;;;5032613;28;20482;-75
2023/03/13 08:50:03;;;;;;;1.60;1.00;;;14.40;98.20;;;;;;5033830;28;20459;-75
2023/03/13 08:52:31;;;;;;;1.60;1.10;;;14.40;98.20;;;;;;5030625;28;20525;-75
2023/03/13 08:54:57;;;;;;;1.60;1.00;;;14.50;98.20;;;;;;5044195;28;20462;-75
2023/03/13 08:57:24;;;;;;;1.60;1.03;;;14.50;98.20;;;;;;5029878;28;20815;-75
2023/03/13 08:59:51;;;;;;;1.57;1.00;;;14.50;98.20;;;;;;5045294;28;20970;-75
2023/03/13 09:02:19;;;;;;;1.60;1.23;;;14.50;98.20;;;;;;5027104;28;20998;-74
2023/03/13 09:04:48;;;;;;;1.53;1.00;;;14.50;98.20;;;;;;5038447;28;20846;-75
2023/03/13 09:07:15;;;;;;;1.60;1.00;;;14.50;98.20;;;;;;5030976;28;20560;-76
2023/03/13 09:09:42;;;;;;;12.93;2.03;;;14.60;98.20;;;;;;5038962;28;20497;-75
2023/03/13 09:12:10;;;;;;;1.57;1.00;;;14.60;98.20;;;;;;5033278;28;20490;-75
2023/03/13 09:14:36;;;;;;;1.60;1.00;;;14.60;98.20;;;;;;5044721;28;20844;-75
2023/03/13 09:17:03;;;;;;;1.60;1.10;;;14.70;98.20;;;;;;5027230;28;20710;-75
2023/03/13 09:19:31;;;;;;;1.57;1.00;;;14.70;98.20;;;;;;5039836;28;20890;-74
2023/03/13 09:21:58;;;;;;;1.60;1.03;;;14.70;98.20;;;;;;5034673;28;20486;-75
2023/03/13 09:24:25;;;;;;;1.57;1.00;;;14.70;98.20;;;;;;5035324;28;20489;-75
2023/03/13 09:26:52;;;;;;;1.60;1.07;;;14.80;98.20;;;;;;5025511;28;21026;-74
2023/03/13 09:29:19;;;;;;;1.57;1.00;;;14.80;98.20;;;;;;5041663;28;20490;-74
2023/03/13 09:31:46;;;;;;;1.60;1.00;;;14.90;98.20;;;;;;5030497;28;20881;-75
2023/03/13 09:34:12;;;;;;;1.60;1.10;;;15.00;98.20;;;;;;5044972;28;20469;-74
2023/03/13 09:36:41;;;;;;;1.60;1.10;;;15.00;98.20;;;;;;5028625;28;20487;-75
2023/03/13 09:39:07;;;;;;;1.60;1.03;;;15.00;98.20;;;;;;5045738;28;21025;-76
2023/03/13 09:41:38;;;;;;;1.53;1.00;;;15.10;98.20;;;;;;5031178;28;20502;-75
2023/03/13 09:44:12;;;;;;;1.57;1.00;;;15.10;98.20;;;;;;5034653;28;20935;-75
2023/03/13 09:46:44;;;;;;;2.33;2.13;;;15.20;98.20;;;;;;5034628;28;20577;-75
2023/03/13 09:49:29;;;;;;;1.60;1.20;;;15.30;98.20;;;;;;5036997;28;21022;-75
2023/03/13 09:52:05;;;;;;;1.60;1.00;;;15.30;98.20;;;;;;5028858;28;20491;-76
2023/03/13 09:54:37;;;;;;;1.53;0.90;;;15.40;98.20;;;;;;5034533;28;20470;-75
2023/03/13 09:57:13;;;;;;;1.60;1.00;;;15.60;98.20;;;;;;5033406;28;20495;-75
2023/03/13 09:59:45;;;;;;;1.57;1.00;;;15.80;98.20;;;;;;5046847;28;20457;-76
2023/03/13 10:02:30;;;;;;;1.60;1.00;;;16.00;98.20;;;;;;5036376;28;20488;-76
2023/03/13 10:05:05;;;;;;;1.60;1.10;;;16.20;98.20;;;;;;5039930;28;20781;-75
2023/03/13 10:07:33;;;;;;;1.60;1.00;;;16.40;98.20;;;;;;5025238;28;20490;-75
2023/03/13 10:10:01;;;;;;;1.60;1.00;;;16.60;98.20;;;;;;5039911;28;21016;-73
2023/03/13 10:12:31;;;;;;;1.60;1.00;;;16.80;98.20;;;;;;5034698;28;20533;-74
2023/03/13 10:15:16;;;;;;;1.60;1.07;;;16.90;98.20;;;;;;5039212;28;20466;-74
2023/03/13 10:17:42;;;;;;;1.60;1.00;;;16.90;98.20;;;;;;5029267;28;20492;-74
2023/03/13 10:20:22;;;;;;;1.60;0.97;;;16.90;98.20;;;;;;5037023;28;20462;-74
2023/03/13 10:22:57;;;;;;;1.60;1.00;;;16.90;98.20;;;;;;5031464;28;20568;-74
2023/03/13 10:25:30;;;;;;;1.90;1.30;;;17.00;98.20;;;;;;5039357;28;21229;-74
2023/03/13 10:27:57;;;;;;;1.60;1.00;;;17.20;98.20;;;;;;5033853;28;20486;-76
2023/03/13 10:30:26;;;;;;;1.60;0.90;;;17.30;98.20;;;;;;5039491;28;20557;-76
2023/03/13 10:33:00;;;;;;;1.60;0.90;;;17.40;98.20;;;;;;5029991;28;20490;-74
2023/03/13 10:35:33;;;;;;;1.60;0.93;;;17.50;98.20;;;;;;5039158;28;20967;-77
2023/03/13 10:38:09;;;;;;;2.03;1.83;;;17.50;98.20;;;;;;5022537;28;20560;-76
2023/03/13 10:40:36;;;;;;;1.60;0.93;;;17.60;98.20;;;;;;5038581;28;21446;-75
2023/03/13 10:43:05;;;;;;;1.60;0.90;;;17.60;98.20;;;;;;5008914;28;20774;-73
2023/03/13 10:45:35;;;;;;;1.57;0.90;;;17.60;98.20;;;;;;5038574;28;20461;-74
2023/03/13 10:48:10;;;;;;;1.60;1.00;;;17.60;98.20;;;;;;5030867;28;20496;-73
2023/03/13 10:50:37;;;;;;;1.60;1.00;;;17.70;98.20;;;;;;5040644;28;20458;-73
2023/03/13 10:53:21;;;;;;;1.60;1.00;;;17.70;98.20;;;;;;5034015;28;20509;-74
2023/03/13 10:55:48;;;;;;;1.60;1.00;;;17.80;98.20;;;;;;5035975;28;20964;-74
2023/03/13 10:58:20;;;;;;;1.50;1.00;;;18.00;98.20;;;;;;5035174;28;20768;-74
2023/03/13 11:00:48;;;;;;;1.60;1.00;;;18.20;98.20;;;;;;5041632;28;20922;-73
2023/03/13 11:03:18;;;;;;;1.70;1.10;;;18.30;98.20;;;;;;5043233;28;20536;-74
2023/03/13 11:05:53;;;;;;;1.60;1.00;;;18.30;98.20;;;;;;5037432;28;20507;-73
2023/03/13 11:08:24;;;;;;;1.60;1.00;;;18.40;98.20;;;;;;5009461;28;20773;-74
2023/03/13 11:10:55;;;;;;;1.60;0.90;;;18.40;98.20;;;;;;5030781;28;20471;-74
2023/03/13 11:13:36;;;;;;;1.57;0.90;;;18.30;98.20;;;;;;5033364;28;20890;-74
2023/03/13 11:16:18;;;;;;;1.60;0.97;;;18.20;98.20;;;;;;5020572;28;20479;-73
2023/03/13 11:19:08;;;;;;;1.60;1.00;;;18.30;98.20;;;;;;5033897;28;20582;-73
2023/03/13 11:21:46;;;;;;;1.50;0.90;;;18.40;98.20;;;;;;5026958;28;20487;-73
2023/03/13 11:24:21;;;;;;;1.57;1.00;;;18.20;98.20;;;;;;5043925;28;20545;-73
2023/03/13 11:26:56;;;;;;;1.57;0.90;;;18.00;98.20;;;;;;5029946;28;20490;-74
2023/03/13 11:29:31;;;;;;;1.60;0.90;;;18.00;98.20;;;;;;5042083;28;20493;-73
2023/03/13 11:32:04;;;;;;;1.53;0.90;;;17.90;98.20;;;;;;5033286;28;20490;-73
2023/03/13 11:34:39;;;;;;;1.53;0.90;;;17.90;98.20;;;;;;5042126;28;20887;-73
2023/03/13 11:37:11;;;;;;;1.53;0.90;;;17.80;98.20;;;;;;5031420;28;20490;-73
2023/03/13 11:39:51;;;;;;;1.60;0.90;;;17.70;98.20;;;;;;5035248;28;20451;-73
2023/03/13 11:42:45;;;;;;;1.57;1.00;;;17.80;98.20;;;;;;5032765;28;20482;-73
2023/03/13 11:45:30;;;;;;;1.60;1.00;;;18.00;98.20;;;;;;5042091;28;20842;-74
2023/03/13 11:48:00;;;;;;;1.50;0.90;;;18.10;98.20;;;;;;5035824;28;20514;-73
2023/03/13 11:50:37;;;;;;;1.50;0.90;;;18.40;98.20;;;;;;5043043;28;20894;-73
2023/03/13 11:53:25;;;;;;;1.60;0.90;;;18.50;98.20;;;;;;5037427;28;21542;-73
2023/03/13 11:56:07;;;;;;;1.53;0.90;;;18.40;98.20;;;;;;5035871;28;20476;-74
2023/03/13 11:58:57;;;;;;;1.57;0.97;;;18.30;98.20;;;;;;5036372;28;20490;-74
2023/03/13 12:01:26;;;;;;;1.57;1.00;;;18.40;98.20;;;;;;5038193;28;20888;-75
2023/03/13 12:04:00;;;;;;;1.50;0.90;;;18.80;98.20;;;;;;5042464;28;20498;-74
2023/03/13 12:06:31;;;;;;;1.57;0.97;;;19.10;98.20;;;;;;5035112;28;20485;-74
2023/03/13 12:09:03;;;;;;;1.60;1.10;;;19.10;98.20;;;;;;5036092;28;20494;-73
2023/03/13 12:11:42;;;;;;;1.60;1.13;;;18.90;98.20;;;;;;5036047;28;20567;-73
2023/03/13 12:14:14;;;;;;;1.60;1.00;;;18.70;98.20;;;;;;5035611;28;20467;-73
2023/03/13 12:16:46;;;;;;;1.50;0.93;;;18.40;98.20;;;;;;5033631;28;21001;-73
2023/03/13 12:19:17;;;;;;;1.53;0.90;;;18.30;98.20;;;;;;5039965;28;20845;-74
2023/03/13 12:21:51;;;;;;;1.57;0.90;;;18.30;98.20;;;;;;5029547;28;20846;-75
2023/03/13 12:24:25;;;;;;;1.57;0.90;;;18.50;98.20;;;;;;5038944;28;20468;-73
2023/03/13 12:26:57;;;;;;;1.53;1.00;;;18.70;98.20;;;;;;5026848;28;20490;-74
2023/03/13 12:29:40;;;;;;;1.57;0.90;;;19.00;98.20;;;;;;5042388;28;20605;-74
2023/03/13 12:32:13;;;;;;;1.60;0.90;;;19.30;98.20;;;;;;5027130;28;20490;-73
2023/03/13 12:34:52;;;;;;;1.60;0.90;;;19.50;97.80;;;;;;5027928;28;20467;-74
2023/03/13 12:37:25;;;;;;;1.60;0.90;;;19.60;97.90;;;;;;5029693;28;20493;-74
2023/03/13 12:39:57;;;;;;;1.60;0.90;;;19.60;96.80;;;;;;5040114;28;20463;-74
2023/03/13 12:42:39;;;;;;;1.53;0.90;;;19.40;95.80;;;;;;5035035;28;20875;-73
2023/03/13 12:45:08;;;;;;;1.57;1.00;;;19.40;96.80;;;;;;5044219;28;20494;-73
2023/03/13 12:47:51;;;;;;;1.57;0.97;;;19.30;96.80;;;;;;5033951;28;20490;-73
2023/03/13 12:50:34;;;;;;;1.50;0.90;;;19.20;96.90;;;;;;5041622;28;20482;-73
2023/03/13 12:53:15;;;;;;;1.60;1.00;;;19.00;97.50;;;;;;5035678;28;21063;-74
2023/03/13 12:56:06;;;;;;;1.53;0.90;;;18.90;97.90;;;;;;5041341;28;20494;-73
2023/03/13 12:58:47;;;;;;;1.70;1.30;;;18.90;98.00;;;;;;5014045;28;20804;-73
2023/03/13 13:01:21;;;;;;;1.57;0.90;;;18.80;97.30;;;;;;5025302;28;20842;-74